Time;durP1;ratioP1;P1;durP2;ratioP2;P2;SDS_P1;SDS_P2;PMS_P1;PMS_P2;Temp;Humidity;BMP_temperature;BMP_pressure;BME280_temperature;BME280_humidity;BME280_pressure;Samples;Min_cycle;Max_cycle;Signal;HPM_P1;HPM_P2
2024/01/17 00:00:42;;;;;;;28.02;13.95;;;-0.20;99.90;;;;;;5037841;28;20489;-71
2024/01/17 00:03:09;;;;;;;31.80;14.82;;;-0.20;99.90;;;;;;5038120;28;20038;-75
2024/01/17 00:05:35;;;;;;;25.48;11.77;;;-0.10;99.90;;;;;;5039809;28;20458;-74
2024/01/17 00:08:01;;;;;;;25.30;12.73;;;-0.10;99.90;;;;;;5039893;28;20017;-73
2024/01/17 00:10:26;;;;;;;25.65;12.40;;;-0.10;99.90;;;;;;5039845;28;20083;-74
2024/01/17 00:12:52;;;;;;;24.85;13.57;;;-0.10;99.90;;;;;;5037715;28;20029;-74
2024/01/17 00:15:18;;;;;;;30.05;13.38;;;-0.10;99.90;;;;;;5038064;28;20029;-74
2024/01/17 00:17:46;;;;;;;24.35;13.30;;;-0.10;99.90;;;;;;5041385;28;20021;-75
2024/01/17 00:20:13;;;;;;;22.38;13.05;;;-0.10;99.90;;;;;;5036780;28;20024;-74
2024/01/17 00:22:38;;;;;;;24.23;13.75;;;-0.20;99.90;;;;;;5036806;28;20558;-74
2024/01/17 00:25:05;;;;;;;23.73;13.38;;;-0.10;99.90;;;;;;5039230;28;20116;-75
2024/01/17 00:27:31;;;;;;;19.85;12.80;;;-0.20;99.90;;;;;;5037886;28;20504;-75
2024/01/17 00:29:57;;;;;;;22.90;11.88;;;-0.20;99.90;;;;;;5038352;28;20033;-75
2024/01/17 00:32:26;;;;;;;29.40;13.32;;;-0.20;99.90;;;;;;5038103;28;20037;-73
2024/01/17 00:34:52;;;;;;;24.73;13.07;;;-0.30;99.90;;;;;;5042672;28;20018;-75
2024/01/17 00:37:18;;;;;;;23.95;12.18;;;-0.20;99.90;;;;;;5037660;28;20028;-75
2024/01/17 00:39:44;;;;;;;25.67;12.25;;;-0.30;99.90;;;;;;5037188;28;20025;-73
2024/01/17 00:42:10;;;;;;;25.92;12.23;;;-0.30;99.90;;;;;;5034587;28;20047;-74
2024/01/17 00:44:38;;;;;;;22.13;12.27;;;-0.30;99.90;;;;;;5036125;28;20041;-74
2024/01/17 00:47:07;;;;;;;21.65;12.57;;;-0.30;99.90;;;;;;5039735;28;20017;-74
2024/01/17 00:49:33;;;;;;;25.10;13.07;;;-0.40;99.90;;;;;;5038299;28;20033;-74
2024/01/17 00:51:58;;;;;;;25.40;12.10;;;-0.30;99.90;;;;;;5038200;28;20043;-74
2024/01/17 00:54:24;;;;;;;24.30;12.18;;;-0.40;99.90;;;;;;5038602;28;20025;-74
2024/01/17 00:56:50;;;;;;;25.63;12.30;;;-0.30;99.90;;;;;;5038788;28;20483;-75
2024/01/17 00:59:15;;;;;;;26.85;12.25;;;-0.30;99.90;;;;;;5040477;28;20028;-74
2024/01/17 01:01:41;;;;;;;18.50;11.23;;;-0.30;99.90;;;;;;5034978;28;20018;-74
2024/01/17 01:04:10;;;;;;;22.67;12.75;;;-0.30;99.90;;;;;;5035258;28;20490;-73
2024/01/17 01:06:36;;;;;;;24.13;12.93;;;-0.40;99.90;;;;;;5034949;28;20024;-73
2024/01/17 01:09:02;;;;;;;27.48;12.68;;;-0.40;99.90;;;;;;5035564;28;20022;-74
2024/01/17 01:11:32;;;;;;;21.20;11.23;;;-0.40;99.90;;;;;;5037397;28;20027;-75
2024/01/17 01:13:59;;;;;;;24.67;10.88;;;-0.40;99.90;;;;;;5037834;28;20386;-74
2024/01/17 01:16:24;;;;;;;20.40;10.60;;;-0.40;99.90;;;;;;5037474;28;20010;-71
2024/01/17 01:18:50;;;;;;;22.65;12.02;;;-0.40;99.90;;;;;;5033879;28;20425;-74
2024/01/17 01:21:16;;;;;;;22.48;11.35;;;-0.40;99.90;;;;;;5037613;28;20928;-74
2024/01/17 01:23:42;;;;;;;22.80;11.23;;;-0.40;99.90;;;;;;5037153;28;20025;-75
2024/01/17 01:26:08;;;;;;;23.58;12.23;;;-0.40;99.90;;;;;;5037378;28;20516;-74
2024/01/17 01:28:33;;;;;;;29.77;12.77;;;-0.40;99.90;;;;;;5038380;28;20075;-75
2024/01/17 01:30:59;;;;;;;23.15;12.52;;;-0.40;99.90;;;;;;5034804;28;20029;-75
2024/01/17 01:33:25;;;;;;;25.67;12.48;;;-0.40;99.90;;;;;;5035870;28;20026;-75
2024/01/17 01:35:51;;;;;;;23.58;11.35;;;-0.40;99.90;;;;;;5034980;28;20009;-72
2024/01/17 01:38:16;;;;;;;24.63;11.85;;;-0.50;99.90;;;;;;5039249;28;20017;-74
2024/01/17 01:40:43;;;;;;;22.13;11.50;;;-0.50;99.90;;;;;;5037932;28;21389;-74
2024/01/17 01:43:22;;;;;;;27.45;12.10;;;-0.50;99.90;;;;;;5037144;28;20459;-73
2024/01/17 01:46:04;;;;;;;26.48;12.35;;;-0.50;99.90;;;;;;5037318;28;20037;-73
2024/01/17 01:48:31;;;;;;;25.52;12.18;;;-0.50;99.90;;;;;;5037761;28;20018;-74
2024/01/17 01:50:57;;;;;;;26.60;11.52;;;-0.50;99.90;;;;;;5038122;28;20522;-71
2024/01/17 01:53:25;;;;;;;26.45;12.82;;;-0.50;99.90;;;;;;5037455;28;20033;-73
2024/01/17 01:55:53;;;;;;;25.67;12.52;;;-0.50;99.90;;;;;;5038189;28;20017;-74
2024/01/17 01:58:21;;;;;;;30.10;12.23;;;-0.50;99.90;;;;;;5033228;28;20029;-75
2024/01/17 02:00:49;;;;;;;28.30;12.57;;;-0.60;99.90;;;;;;5030939;28;20018;-75
2024/01/17 02:03:15;;;;;;;24.13;12.15;;;-0.60;99.90;;;;;;5031730;28;20033;-75
2024/01/17 02:05:42;;;;;;;25.63;12.25;;;-0.60;99.90;;;;;;5030640;28;20021;-75
2024/01/17 02:08:08;;;;;;;25.90;12.18;;;-0.50;99.90;;;;;;5032202;28;20030;-75
2024/01/17 02:10:35;;;;;;;26.00;12.13;;;-0.50;99.90;;;;;;5032247;28;20025;-74
2024/01/17 02:13:02;;;;;;;25.75;12.70;;;-0.50;99.90;;;;;;5032347;28;20021;-75
2024/01/17 02:15:28;;;;;;;23.60;12.38;;;-0.40;99.90;;;;;;5031931;28;20057;-75
2024/01/17 02:17:54;;;;;;;23.90;11.68;;;-0.40;99.90;;;;;;5032275;28;20060;-75
2024/01/17 02:20:20;;;;;;;22.08;11.98;;;-0.40;99.90;;;;;;5031789;28;20049;-74
2024/01/17 02:22:45;;;;;;;27.00;12.88;;;-0.50;99.90;;;;;;5032152;28;20044;-75
2024/01/17 02:25:11;;;;;;;23.45;12.82;;;-0.40;99.90;;;;;;5037235;28;20098;-75
2024/01/17 02:27:38;;;;;;;24.48;12.50;;;-0.40;99.90;;;;;;5050277;28;20032;-75
2024/01/17 02:30:06;;;;;;;22.60;11.95;;;-0.40;99.90;;;;;;5051671;28;20025;-75
2024/01/17 02:32:36;;;;;;;22.48;12.52;;;-0.50;99.90;;;;;;5052294;28;20029;-75
2024/01/17 02:35:02;;;;;;;28.23;13.85;;;-0.40;99.90;;;;;;5051466;28;20025;-75
2024/01/17 02:37:28;;;;;;;23.15;13.57;;;-0.50;99.90;;;;;;5051600;28;20520;-73
2024/01/17 02:39:54;;;;;;;22.38;12.38;;;-0.50;99.90;;;;;;5050475;28;20067;-75
2024/01/17 02:42:20;;;;;;;22.45;12.93;;;-0.50;99.90;;;;;;5049410;28;20114;-75
2024/01/17 02:44:46;;;;;;;22.40;12.85;;;-0.60;99.90;;;;;;5053233;28;20033;-75
2024/01/17 02:47:12;;;;;;;26.60;13.00;;;-0.60;99.90;;;;;;5054621;28;20070;-74
2024/01/17 02:49:38;;;;;;;24.58;12.38;;;-0.60;99.90;;;;;;5054844;28;20026;-74
2024/01/17 02:52:05;;;;;;;25.73;12.20;;;-0.60;99.90;;;;;;5038654;28;20029;-73
2024/01/17 02:54:31;;;;;;;25.55;13.50;;;-0.60;99.90;;;;;;5039542;28;20059;-74
2024/01/17 02:56:57;;;;;;;28.30;12.75;;;-0.60;99.90;;;;;;5056211;28;20045;-75
2024/01/17 02:59:22;;;;;;;27.58;13.15;;;-0.60;99.90;;;;;;5055605;28;20036;-75
2024/01/17 03:01:48;;;;;;;32.28;13.75;;;-0.60;99.90;;;;;;5055711;28;20033;-74
2024/01/17 03:04:14;;;;;;;22.73;12.82;;;-0.70;99.90;;;;;;5055110;28;20052;-74
2024/01/17 03:06:40;;;;;;;25.38;13.15;;;-0.70;99.90;;;;;;5055342;28;20031;-74
2024/01/17 03:09:05;;;;;;;29.35;12.93;;;-0.70;99.90;;;;;;5055378;28;20029;-74
2024/01/17 03:11:31;;;;;;;24.02;13.02;;;-0.70;99.90;;;;;;5045015;28;20024;-75
2024/01/17 03:13:57;;;;;;;22.02;12.88;;;-0.60;99.90;;;;;;5053438;28;20442;-75
2024/01/17 03:16:22;;;;;;;28.10;13.82;;;-0.70;99.90;;;;;;5040298;28;20026;-75
2024/01/17 03:18:48;;;;;;;27.58;13.60;;;-0.60;99.90;;;;;;5034033;28;20037;-75
2024/01/17 03:21:14;;;;;;;32.63;13.60;;;-0.60;99.90;;;;;;5034309;28;20045;-75
2024/01/17 03:23:40;;;;;;;25.33;13.05;;;-0.60;99.90;;;;;;5034031;28;20025;-75
2024/01/17 03:26:06;;;;;;;26.05;13.23;;;-0.50;99.90;;;;;;5035482;28;20093;-75
2024/01/17 03:28:31;;;;;;;24.40;12.88;;;-0.60;99.90;;;;;;5035265;28;20014;-75
2024/01/17 03:30:57;;;;;;;23.17;12.63;;;-0.60;99.90;;;;;;5035285;28;20496;-75
2024/01/17 03:33:23;;;;;;;26.52;13.07;;;-0.70;99.90;;;;;;5034804;28;20528;-75
2024/01/17 03:35:48;;;;;;;23.63;12.57;;;-0.70;99.90;;;;;;5034924;28;20414;-71
2024/01/17 03:38:18;;;;;;;26.23;12.68;;;-0.70;99.90;;;;;;5034816;28;20026;-75
2024/01/17 03:40:44;;;;;;;32.50;13.90;;;-0.80;99.90;;;;;;5034358;28;20033;-75
2024/01/17 03:43:11;;;;;;;31.50;13.73;;;-0.80;99.90;;;;;;5052045;28;20025;-75
2024/01/17 03:45:36;;;;;;;28.75;14.63;;;-0.80;99.90;;;;;;5050981;28;20052;-71
2024/01/17 03:48:04;;;;;;;28.05;14.10;;;-0.90;99.90;;;;;;5036402;28;20471;-75
2024/01/17 03:50:30;;;;;;;34.20;14.18;;;-1.00;99.90;;;;;;5043281;28;20018;-75
2024/01/17 03:52:56;;;;;;;25.92;14.40;;;-1.00;99.90;;;;;;5034981;28;20068;-75
2024/01/17 03:55:21;;;;;;;27.48;13.95;;;-1.00;99.90;;;;;;5044858;28;20028;-74
2024/01/17 03:57:47;;;;;;;28.58;14.50;;;-1.00;99.90;;;;;;5054490;28;20024;-75
2024/01/17 04:00:14;;;;;;;24.40;13.40;;;-1.00;99.90;;;;;;5054282;28;20524;-75
2024/01/17 04:02:40;;;;;;;24.23;13.75;;;-1.10;99.90;;;;;;5045107;28;20104;-75
2024/01/17 04:05:07;;;;;;;29.40;13.35;;;-1.10;99.90;;;;;;5034708;28;20458;-75
2024/01/17 04:07:32;;;;;;;31.00;13.18;;;-1.10;99.90;;;;;;5038295;28;20017;-75
2024/01/17 04:09:58;;;;;;;26.83;12.40;;;-1.10;99.90;;;;;;5054559;28;20363;-74
2024/01/17 04:12:24;;;;;;;25.58;12.95;;;-1.10;99.90;;;;;;5054476;28;20039;-75
2024/01/17 04:14:50;;;;;;;31.55;13.50;;;-1.00;99.90;;;;;;5051818;28;20125;-75
2024/01/17 04:17:15;;;;;;;25.73;13.07;;;-1.00;99.90;;;;;;5054176;28;20021;-74
2024/01/17 04:19:41;;;;;;;27.13;12.05;;;-1.00;99.90;;;;;;5054111;28;20064;-75
2024/01/17 04:22:07;;;;;;;27.05;12.77;;;-0.90;99.90;;;;;;5054146;28;20017;-75
2024/01/17 04:24:33;;;;;;;30.08;13.23;;;-0.90;99.90;;;;;;5053788;28;20035;-75
2024/01/17 04:26:58;;;;;;;26.70;12.95;;;-0.90;99.90;;;;;;5053833;28;20385;-75
2024/01/17 04:29:24;;;;;;;27.90;14.00;;;-0.90;99.90;;;;;;5053258;28;20559;-74
2024/01/17 04:31:52;;;;;;;28.25;13.57;;;-1.00;99.90;;;;;;5053450;28;20021;-75
2024/01/17 04:34:18;;;;;;;27.80;13.63;;;-1.00;99.90;;;;;;5053067;28;20051;-75
2024/01/17 04:36:43;;;;;;;25.13;13.02;;;-1.00;99.90;;;;;;5052564;28;20028;-71
2024/01/17 04:39:10;;;;;;;28.38;13.05;;;-1.00;99.90;;;;;;5053558;28;20830;-73
2024/01/17 04:41:36;;;;;;;24.85;12.15;;;-0.90;99.90;;;;;;5053776;28;20036;-75
2024/01/17 04:44:02;;;;;;;25.27;13.90;;;-0.90;99.90;;;;;;5053577;28;20490;-75
2024/01/17 04:46:28;;;;;;;25.73;12.23;;;-0.80;99.90;;;;;;5052629;28;20474;-76
2024/01/17 04:48:53;;;;;;;25.65;12.55;;;-0.90;99.90;;;;;;5052470;28;20052;-75
2024/01/17 04:51:21;;;;;;;22.20;13.23;;;-0.90;99.90;;;;;;5053863;28;20033;-74
2024/01/17 04:53:48;;;;;;;24.30;12.98;;;-0.80;99.90;;;;;;5053735;28;20064;-75
2024/01/17 04:56:15;;;;;;;24.95;12.23;;;-0.90;99.90;;;;;;5053390;28;20036;-75
2024/01/17 04:58:45;;;;;;;30.42;12.77;;;-0.80;99.90;;;;;;5052577;28;20052;-75
2024/01/17 05:01:11;;;;;;;21.17;12.02;;;-0.90;99.90;;;;;;5053593;28;20057;-75
2024/01/17 05:03:37;;;;;;;26.52;11.80;;;-0.90;99.90;;;;;;5053258;28;20107;-74
2024/01/17 05:06:05;;;;;;;26.00;12.82;;;-0.90;99.90;;;;;;5052290;28;20470;-75
2024/01/17 05:08:30;;;;;;;23.92;12.00;;;-0.80;99.90;;;;;;5052774;28;20104;-75
2024/01/17 05:10:56;;;;;;;23.30;12.18;;;-0.90;99.90;;;;;;5052977;28;20096;-75
2024/01/17 05:13:22;;;;;;;27.10;12.25;;;-0.90;99.90;;;;;;5053052;28;20389;-75
2024/01/17 05:15:48;;;;;;;26.17;12.90;;;-0.90;99.90;;;;;;5053157;28;20123;-74
2024/01/17 05:18:14;;;;;;;24.13;12.90;;;-0.90;99.90;;;;;;5052943;28;20031;-75
2024/01/17 05:20:40;;;;;;;25.02;13.32;;;-0.90;99.90;;;;;;5052692;28;20115;-75
2024/01/17 05:23:06;;;;;;;32.42;13.57;;;-0.80;99.90;;;;;;5053543;28;20041;-75
2024/01/17 05:25:32;;;;;;;30.48;12.82;;;-0.80;99.90;;;;;;5053147;28;20032;-74
2024/01/17 05:27:58;;;;;;;28.58;13.25;;;-0.80;99.90;;;;;;5052733;28;20051;-75
2024/01/17 05:30:24;;;;;;;28.23;13.18;;;-0.80;99.90;;;;;;5053222;28;20402;-74
2024/01/17 05:32:51;;;;;;;26.88;13.30;;;-0.90;99.90;;;;;;5052942;28;20021;-75
2024/01/17 05:35:17;;;;;;;25.77;13.02;;;-0.80;99.90;;;;;;5052676;28;20021;-72
2024/01/17 05:37:43;;;;;;;24.67;12.15;;;-0.80;99.90;;;;;;5051314;28;20108;-75
2024/01/17 05:40:13;;;;;;;29.65;13.23;;;-0.80;99.90;;;;;;5052967;28;20037;-74
2024/01/17 05:42:39;;;;;;;26.08;12.75;;;-0.80;99.90;;;;;;5052563;28;20040;-75
2024/01/17 05:45:07;;;;;;;24.05;12.85;;;-0.80;99.90;;;;;;5051331;28;20041;-74
2024/01/17 05:47:37;;;;;;;25.85;12.68;;;-0.70;99.90;;;;;;5051098;28;20127;-75
2024/01/17 05:50:03;;;;;;;29.10;15.00;;;-0.80;99.90;;;;;;5043619;28;20033;-75
2024/01/17 05:52:32;;;;;;;23.38;13.95;;;-0.80;99.90;;;;;;5032525;28;20029;-74
2024/01/17 05:54:58;;;;;;;30.00;13.82;;;-0.80;99.90;;;;;;5039766;28;20021;-75
2024/01/17 05:57:23;;;;;;;27.42;14.10;;;-0.80;99.90;;;;;;5052119;28;20135;-75
2024/01/17 05:59:49;;;;;;;24.30;13.50;;;-0.90;99.90;;;;;;5050918;28;20048;-75
2024/01/17 06:02:15;;;;;;;25.42;14.35;;;-0.90;99.90;;;;;;5052148;28;20470;-73
2024/01/17 06:04:40;;;;;;;24.05;11.90;;;-0.80;99.90;;;;;;5052027;28;20482;-74
2024/01/17 06:07:06;;;;;;;23.63;12.40;;;-0.70;99.90;;;;;;5051164;28;20025;-74
2024/01/17 06:09:32;;;;;;;23.65;12.48;;;-0.80;99.90;;;;;;5052358;28;20424;-75
2024/01/17 06:11:57;;;;;;;25.50;12.10;;;-0.70;99.90;;;;;;5052183;28;20382;-75
2024/01/17 06:14:23;;;;;;;28.77;12.60;;;-0.70;99.90;;;;;;5052272;28;20017;-75
2024/01/17 06:16:49;;;;;;;28.10;13.13;;;-0.70;99.90;;;;;;5052339;28;20387;-75
2024/01/17 06:19:16;;;;;;;24.25;12.13;;;-0.80;99.90;;;;;;5052048;28;20549;-72
2024/01/17 06:21:42;;;;;;;23.02;12.43;;;-0.80;99.90;;;;;;5052221;28;20025;-75
2024/01/17 06:24:08;;;;;;;23.92;12.60;;;-0.70;99.90;;;;;;5051859;28;20040;-74
2024/01/17 06:26:33;;;;;;;23.75;12.57;;;-0.70;99.90;;;;;;5051018;28;20025;-74
2024/01/17 06:28:59;;;;;;;25.65;12.55;;;-0.70;99.90;;;;;;5052199;28;20051;-75
2024/01/17 06:31:25;;;;;;;22.65;12.45;;;-0.60;99.90;;;;;;5051748;28;20025;-75
2024/01/17 06:33:52;;;;;;;22.17;12.38;;;-0.60;99.90;;;;;;5052093;28;20043;-75
2024/01/17 06:36:18;;;;;;;26.42;12.57;;;-0.70;99.90;;;;;;5052061;28;20021;-75
2024/01/17 06:38:44;;;;;;;27.45;13.77;;;-0.70;99.90;;;;;;5051748;28;20040;-74
2024/01/17 06:41:10;;;;;;;34.92;14.23;;;-0.70;99.90;;;;;;5051194;28;20036;-75
2024/01/17 06:43:36;;;;;;;32.90;13.85;;;-0.80;99.90;;;;;;5051615;28;20025;-75
2024/01/17 06:46:02;;;;;;;32.70;15.82;;;-0.80;99.90;;;;;;5051153;28;20048;-75
2024/01/17 06:48:28;;;;;;;31.33;14.30;;;-0.70;99.90;;;;;;5051581;28;20474;-75
2024/01/17 06:50:54;;;;;;;24.25;12.98;;;-0.80;99.90;;;;;;5048585;28;20033;-74
2024/01/17 06:53:21;;;;;;;27.60;13.20;;;-0.90;99.90;;;;;;5036157;28;20018;-72
2024/01/17 06:55:47;;;;;;;28.77;13.68;;;-0.80;99.90;;;;;;5045626;28;20511;-73
2024/01/17 06:58:13;;;;;;;26.23;13.13;;;-0.70;99.90;;;;;;5051950;28;20025;-74
2024/01/17 07:00:38;;;;;;;27.25;13.50;;;-0.80;99.90;;;;;;5051120;28;20037;-73
2024/01/17 07:03:04;;;;;;;24.85;12.88;;;-0.80;99.90;;;;;;5051523;28;20025;-73
2024/01/17 07:05:30;;;;;;;26.60;13.27;;;-0.80;99.90;;;;;;5051745;28;20115;-74
2024/01/17 07:07:56;;;;;;;26.63;12.68;;;-0.70;99.90;;;;;;5051023;28;20155;-73
2024/01/17 07:10:23;;;;;;;26.48;13.00;;;-0.70;99.90;;;;;;5050304;28;20032;-72
2024/01/17 07:12:50;;;;;;;23.45;12.95;;;-0.70;99.90;;;;;;5051858;28;20025;-72
2024/01/17 07:15:17;;;;;;;29.45;14.60;;;-0.70;99.90;;;;;;5048372;28;20087;-72
2024/01/17 07:17:43;;;;;;;24.13;13.15;;;-0.70;99.90;;;;;;5042222;28;20033;-73
2024/01/17 07:20:10;;;;;;;24.08;13.13;;;-0.70;99.90;;;;;;5031807;28;20041;-74
2024/01/17 07:22:44;;;;;;;26.92;13.23;;;-0.80;99.90;;;;;;5031426;28;20051;-73
2024/01/17 07:25:14;;;;;;;30.23;14.00;;;-0.70;99.90;;;;;;5030213;28;20022;-73
2024/01/17 07:27:40;;;;;;;29.25;13.00;;;-0.70;99.90;;;;;;5031231;28;20029;-74
2024/01/17 07:30:07;;;;;;;24.23;11.77;;;-0.80;99.90;;;;;;5030999;28;20103;-74
2024/01/17 07:32:35;;;;;;;24.42;12.52;;;-0.80;99.90;;;;;;5043936;28;20398;-74
2024/01/17 07:35:01;;;;;;;24.73;11.68;;;-0.80;99.90;;;;;;5038890;28;20035;-74
2024/01/17 07:37:26;;;;;;;21.55;12.35;;;-0.80;99.90;;;;;;5053692;28;20021;-75
2024/01/17 07:39:52;;;;;;;25.02;11.40;;;-0.80;99.90;;;;;;5053176;28;20028;-74
2024/01/17 07:42:18;;;;;;;21.52;11.20;;;-0.80;99.90;;;;;;5054423;28;20021;-73
2024/01/17 07:44:44;;;;;;;24.17;11.55;;;-0.80;99.90;;;;;;5053665;28;20478;-73
2024/01/17 07:47:10;;;;;;;25.08;12.57;;;-0.80;99.90;;;;;;5048632;28;20485;-72
2024/01/17 07:49:39;;;;;;;23.13;12.00;;;-0.80;99.90;;;;;;5053046;28;20032;-74
2024/01/17 07:52:08;;;;;;;23.67;12.77;;;-0.70;99.90;;;;;;5053733;28;20021;-71
2024/01/17 07:54:34;;;;;;;23.88;12.73;;;-0.70;99.90;;;;;;5054341;28;20073;-74
2024/01/17 07:57:00;;;;;;;20.77;12.45;;;-0.60;99.90;;;;;;5054478;28;20547;-75
2024/01/17 07:59:27;;;;;;;25.77;11.55;;;-0.50;99.90;;;;;;5059673;28;20048;-75
2024/01/17 08:01:54;;;;;;;27.05;12.60;;;-0.60;99.90;;;;;;5069391;28;20035;-75
2024/01/17 08:04:20;;;;;;;23.95;13.07;;;-0.70;99.90;;;;;;5057655;28;20044;-75
2024/01/17 08:06:46;;;;;;;23.30;12.77;;;-0.60;99.90;;;;;;5046894;28;20025;-74
2024/01/17 08:09:22;;;;;;;26.23;13.18;;;-0.70;99.90;;;;;;5053975;28;20083;-75
2024/01/17 08:11:55;;;;;;;29.55;14.10;;;-0.70;99.90;;;;;;5053883;28;20039;-80
2024/01/17 08:14:21;;;;;;;30.63;14.40;;;-0.60;99.90;;;;;;5050824;28;20033;-76
2024/01/17 08:16:47;;;;;;;31.23;15.13;;;-0.40;99.90;;;;;;5067644;28;20027;-77
2024/01/17 08:19:14;;;;;;;26.95;14.55;;;-0.40;99.90;;;;;;5072877;28;20024;-77
2024/01/17 08:21:49;;;;;;;30.77;14.48;;;-0.40;99.90;;;;;;5061047;28;20390;-75
2024/01/17 08:24:15;;;;;;;24.67;13.52;;;-0.50;99.90;;;;;;5053943;28;20059;-73
2024/01/17 08:26:44;;;;;;;29.38;14.65;;;-0.40;99.90;;;;;;5054063;28;20025;-75
2024/01/17 08:29:10;;;;;;;30.75;13.98;;;-0.50;99.90;;;;;;5053585;28;20025;-76
2024/01/17 08:31:35;;;;;;;29.45;14.30;;;-0.50;99.90;;;;;;5053418;28;20074;-76
2024/01/17 08:34:01;;;;;;;27.50;14.05;;;-0.50;99.90;;;;;;5068490;28;20127;-75
2024/01/17 08:36:30;;;;;;;25.98;12.57;;;-0.40;99.90;;;;;;5057474;28;20112;-76
2024/01/17 08:38:57;;;;;;;25.40;12.40;;;-0.40;99.90;;;;;;5053856;28;20099;-69
2024/01/17 08:41:23;;;;;;;25.30;13.02;;;-0.40;99.90;;;;;;5051467;28;20040;-75
2024/01/17 08:43:49;;;;;;;29.10;13.88;;;-0.40;99.90;;;;;;5053482;28;20071;-76
2024/01/17 08:46:15;;;;;;;29.58;13.98;;;-0.40;99.90;;;;;;5037196;28;20029;-76
2024/01/17 08:48:41;;;;;;;30.35;13.48;;;-0.30;99.90;;;;;;5031083;28;20036;-75
2024/01/17 08:51:08;;;;;;;28.40;13.43;;;-0.30;99.90;;;;;;5033000;28;20033;-76
2024/01/17 08:53:37;;;;;;;26.02;12.10;;;-0.20;99.90;;;;;;5033623;28;20104;-75
2024/01/17 08:56:05;;;;;;;26.90;14.70;;;-0.30;99.90;;;;;;5032273;28;20100;-75
2024/01/17 08:58:33;;;;;;;27.10;13.05;;;-0.30;99.90;;;;;;5033333;28;20014;-75
2024/01/17 09:00:59;;;;;;;28.10;13.93;;;-0.30;99.90;;;;;;5033347;28;20413;-76
2024/01/17 09:03:25;;;;;;;28.40;13.38;;;-0.30;99.90;;;;;;5037180;28;20021;-77
2024/01/17 09:05:51;;;;;;;24.60;13.90;;;-0.30;99.90;;;;;;5052759;28;20029;-75
2024/01/17 09:08:17;;;;;;;24.25;12.43;;;-0.20;99.90;;;;;;5049964;28;20025;-71
2024/01/17 09:10:42;;;;;;;25.63;12.10;;;-0.10;99.90;;;;;;5053186;28;20115;-67
2024/01/17 09:13:09;;;;;;;29.20;12.75;;;-0.10;99.90;;;;;;5053038;28;20366;-67
2024/01/17 09:15:35;;;;;;;24.33;12.60;;;-0.20;99.90;;;;;;5052869;28;20019;-71
2024/01/17 09:18:01;;;;;;;21.50;12.55;;;-0.20;99.90;;;;;;5052829;28;20104;-68
2024/01/17 09:20:27;;;;;;;23.60;11.52;;;-0.10;99.90;;;;;;5052595;28;20109;-70
2024/01/17 09:22:53;;;;;;;25.75;12.85;;;-0.20;99.90;;;;;;5053634;28;20029;-71
2024/01/17 09:25:19;;;;;;;29.08;13.80;;;-0.20;99.90;;;;;;5032230;28;20048;-69
2024/01/17 09:27:45;;;;;;;32.85;13.70;;;-0.10;99.90;;;;;;5036700;28;20028;-68
2024/01/17 09:30:11;;;;;;;27.38;13.88;;;-0.10;99.90;;;;;;5052864;28;20433;-68
2024/01/17 09:32:37;;;;;;;30.23;14.73;;;0.00;99.90;;;;;;5052758;28;20017;-68
2024/01/17 09:35:04;;;;;;;32.60;15.05;;;0.00;99.90;;;;;;5052364;28;20025;-67
2024/01/17 09:37:30;;;;;;;26.38;12.95;;;0.10;99.90;;;;;;5053749;28;20124;-70
2024/01/17 09:39:56;;;;;;;28.75;14.70;;;0.10;99.90;;;;;;5051030;28;20454;-69
2024/01/17 09:42:22;;;;;;;33.88;14.55;;;0.30;99.90;;;;;;5038133;28;20025;-72
2024/01/17 09:44:48;;;;;;;31.23;14.52;;;0.30;99.90;;;;;;5041263;28;20072;-72
2024/01/17 09:47:17;;;;;;;31.95;15.70;;;0.40;99.90;;;;;;5052656;28;20045;-75
2024/01/17 09:49:44;;;;;;;29.77;15.00;;;0.50;99.90;;;;;;5056294;28;20064;-69
2024/01/17 09:52:13;;;;;;;27.05;13.43;;;0.60;99.90;;;;;;5049517;28;20084;-70
2024/01/17 09:54:44;;;;;;;27.17;14.60;;;0.60;99.90;;;;;;5042097;28;20084;-71
2024/01/17 09:57:17;;;;;;;35.83;15.65;;;0.60;99.90;;;;;;5035431;28;20026;-68
2024/01/17 09:59:49;;;;;;;29.95;15.57;;;0.60;99.90;;;;;;5032302;28;20033;-68
2024/01/17 10:02:16;;;;;;;34.65;16.80;;;0.60;99.90;;;;;;5053679;28;20546;-67
2024/01/17 10:04:45;;;;;;;31.92;15.40;;;0.60;99.90;;;;;;5033698;28;20478;-66
2024/01/17 10:07:12;;;;;;;32.33;16.73;;;0.60;99.90;;;;;;5050623;28;20497;-72
2024/01/17 10:09:39;;;;;;;32.50;17.08;;;0.60;99.90;;;;;;5052342;28;20017;-71
2024/01/17 10:12:06;;;;;;;34.63;17.10;;;0.60;99.90;;;;;;5052039;28;20102;-68
2024/01/17 10:14:32;;;;;;;40.08;16.00;;;0.70;99.90;;;;;;5051713;28;20022;-71
2024/01/17 10:16:58;;;;;;;36.53;16.73;;;0.70;99.90;;;;;;5051915;28;20021;-72
2024/01/17 10:19:26;;;;;;;29.92;15.75;;;0.70;99.90;;;;;;5052034;28;20366;-68
2024/01/17 10:21:52;;;;;;;30.02;14.68;;;0.80;99.90;;;;;;5057675;28;20024;-71
2024/01/17 10:24:19;;;;;;;29.88;15.40;;;0.80;99.90;;;;;;5071548;28;20378;-69
2024/01/17 10:26:45;;;;;;;32.70;16.02;;;0.80;99.90;;;;;;5072328;28;20024;-70
2024/01/17 10:29:11;;;;;;;23.83;13.75;;;0.70;99.90;;;;;;5071683;28;20074;-71
2024/01/17 10:31:40;;;;;;;26.50;14.52;;;0.80;99.90;;;;;;5071916;28;20428;-71
2024/01/17 10:34:07;;;;;;;29.45;15.25;;;0.70;99.90;;;;;;5071878;28;20451;-72
2024/01/17 10:36:34;;;;;;;26.70;13.90;;;0.80;99.90;;;;;;5072359;28;20024;-72
2024/01/17 10:39:03;;;;;;;30.15;13.52;;;0.80;99.90;;;;;;5071818;28;20035;-71
2024/01/17 10:41:29;;;;;;;29.50;13.88;;;0.80;99.90;;;;;;5048528;28;20025;-71
2024/01/17 10:43:57;;;;;;;27.08;14.25;;;0.80;99.90;;;;;;5042786;28;20465;-70
2024/01/17 10:46:24;;;;;;;24.40;13.63;;;0.90;99.90;;;;;;5034922;28;20037;-69
2024/01/17 10:48:50;;;;;;;26.77;14.63;;;1.00;99.90;;;;;;5047735;28;20025;-70
2024/01/17 10:51:21;;;;;;;26.70;15.23;;;1.10;99.90;;;;;;5048972;28;20465;-71
2024/01/17 10:53:55;;;;;;;30.83;14.88;;;0.90;99.90;;;;;;5040953;28;20033;-72
2024/01/17 10:56:22;;;;;;;30.25;14.32;;;0.90;99.90;;;;;;5031864;28;20017;-71
2024/01/17 10:58:50;;;;;;;28.08;14.07;;;0.80;99.90;;;;;;5049633;28;20412;-71
2024/01/17 11:01:38;;;;;;;34.70;12.75;;;0.70;99.90;;;;;;5031075;28;20068;-72
2024/01/17 11:04:27;;;;;;;29.88;13.70;;;0.90;99.90;;;;;;5039232;28;20073;-70
2024/01/17 11:06:54;;;;;;;28.67;14.32;;;0.90;99.90;;;;;;5044776;28;20018;-72
2024/01/17 11:09:22;;;;;;;30.50;14.40;;;0.90;99.90;;;;;;5044873;28;20048;-72
2024/01/17 11:11:49;;;;;;;26.65;13.57;;;0.90;99.90;;;;;;5034809;28;20021;-71
2024/01/17 11:14:16;;;;;;;24.25;12.65;;;0.90;99.90;;;;;;5066145;28;20028;-72
2024/01/17 11:16:47;;;;;;;23.13;13.30;;;0.90;99.90;;;;;;5060424;28;20028;-74
2024/01/17 11:19:15;;;;;;;24.50;12.45;;;1.00;99.90;;;;;;5054574;28;20078;-74
2024/01/17 11:21:42;;;;;;;25.80;13.20;;;1.00;99.90;;;;;;5054120;28;20478;-72
2024/01/17 11:24:36;;;;;;;20.60;12.70;;;1.00;99.90;;;;;;5054298;28;20033;-74
2024/01/17 11:27:10;;;;;;;26.42;12.60;;;1.10;99.90;;;;;;5040639;28;20052;-71
2024/01/17 11:30:05;;;;;;;29.52;13.23;;;1.10;99.90;;;;;;5050708;28;20078;-71
2024/01/17 11:32:51;;;;;;;25.55;13.40;;;1.10;99.90;;;;;;5040821;28;20040;-71
2024/01/17 11:35:39;;;;;;;24.92;12.85;;;1.10;99.90;;;;;;5042171;28;20033;-70
2024/01/17 11:38:06;;;;;;;30.17;14.48;;;1.10;99.90;;;;;;5040780;28;20021;-71
2024/01/17 11:40:32;;;;;;;29.33;14.70;;;1.10;99.90;;;;;;5043046;28;20096;-71
2024/01/17 11:42:58;;;;;;;24.73;13.55;;;1.10;99.90;;;;;;5045719;28;20480;-71
2024/01/17 11:45:23;;;;;;;25.48;14.85;;;1.10;99.90;;;;;;5041709;28;20037;-71
2024/01/17 11:47:52;;;;;;;31.17;15.00;;;1.10;99.90;;;;;;5033820;28;20530;-72
2024/01/17 11:50:20;;;;;;;50.25;15.32;;;1.20;99.90;;;;;;5041771;28;20112;-71
2024/01/17 11:52:46;;;;;;;29.27;15.20;;;1.10;99.90;;;;;;5049314;28;20489;-71
2024/01/17 11:55:12;;;;;;;27.77;13.95;;;1.10;99.90;;;;;;5010221;28;20033;-70
2024/01/17 11:57:38;;;;;;;33.35;15.38;;;1.10;99.90;;;;;;5035224;28;20084;-71
2024/01/17 12:00:09;;;;;;;33.83;15.90;;;1.10;99.90;;;;;;5036648;28;20029;-71
2024/01/17 12:02:43;;;;;;;29.75;14.70;;;1.10;99.90;;;;;;5037314;28;20075;-71
2024/01/17 12:05:10;;;;;;;27.75;14.93;;;1.10;99.90;;;;;;5039224;28;20032;-72
2024/01/17 12:07:47;;;;;;;33.40;15.52;;;1.00;99.90;;;;;;5037248;28;20135;-71
2024/01/17 12:10:14;;;;;;;33.63;15.48;;;1.10;99.90;;;;;;5036325;28;20474;-71
2024/01/17 12:12:42;;;;;;;31.58;16.17;;;1.10;99.90;;;;;;5038625;28;20474;-72
2024/01/17 12:15:11;;;;;;;33.65;16.50;;;1.00;99.90;;;;;;5035401;28;20053;-71
2024/01/17 12:17:39;;;;;;;31.80;17.08;;;1.00;99.90;;;;;;5034718;28;20101;-72
2024/01/17 12:20:09;;;;;;;39.00;17.63;;;1.00;99.90;;;;;;5036806;28;20091;-71
2024/01/17 12:22:35;;;;;;;31.20;16.52;;;1.00;99.90;;;;;;5036621;28;20032;-71
2024/01/17 12:25:01;;;;;;;35.55;17.58;;;1.10;99.90;;;;;;5038246;28;20044;-72
2024/01/17 12:27:30;;;;;;;31.10;15.77;;;1.00;99.90;;;;;;5041206;28;20365;-72